Time;durP1;ratioP1;P1;durP2;ratioP2;P2;SDS_P1;SDS_P2;PMS_P1;PMS_P2;Temp;Humidity;BMP_temperature;BMP_pressure;BME280_temperature;BME280_humidity;BME280_pressure;Samples;Min_cycle;Max_cycle;Signal;HPM_P1;HPM_P2
2021/04/02 00:00:31;;;;;;;10.47;7.90;;;7.20;99.90;;;;;;5068802;28;20395;-65
2021/04/02 00:02:57;;;;;;;13.97;8.40;;;7.20;99.90;;;;;;5069264;28;20809;-65
2021/04/02 00:05:22;;;;;;;8.00;7.20;;;7.20;99.90;;;;;;5068660;28;20422;-65
2021/04/02 00:07:48;;;;;;;10.97;7.63;;;7.10;99.90;;;;;;5070019;28;20942;-65
2021/04/02 00:10:17;;;;;;;9.47;8.47;;;7.10;99.90;;;;;;5069720;28;20150;-65
2021/04/02 00:12:44;;;;;;;9.60;8.63;;;7.10;99.90;;;;;;5068526;28;20407;-65
2021/04/02 00:15:16;;;;;;;11.27;8.40;;;7.10;99.90;;;;;;5068428;28;20461;-65
2021/04/02 00:17:42;;;;;;;15.07;8.43;;;7.00;99.90;;;;;;5069805;28;20399;-65
2021/04/02 00:20:10;;;;;;;9.03;8.23;;;7.00;99.90;;;;;;5068970;28;20425;-65
2021/04/02 00:22:35;;;;;;;11.43;8.90;;;6.90;99.90;;;;;;5069637;28;20481;-65
2021/04/02 00:25:02;;;;;;;9.20;8.30;;;6.90;99.90;;;;;;5069431;28;20852;-65
2021/04/02 00:27:28;;;;;;;11.20;9.10;;;6.90;99.90;;;;;;5068163;28;20192;-65
2021/04/02 00:29:53;;;;;;;15.83;8.17;;;6.90;99.90;;;;;;5069668;28;20749;-65
2021/04/02 00:32:19;;;;;;;9.73;8.60;;;6.90;99.90;;;;;;5069658;28;20157;-65
2021/04/02 00:34:45;;;;;;;9.13;7.63;;;7.00;99.90;;;;;;5069671;28;20159;-65
2021/04/02 00:37:10;;;;;;;11.03;8.40;;;7.00;99.90;;;;;;5068368;28;20238;-65
2021/04/02 00:39:36;;;;;;;10.47;7.97;;;7.00;99.90;;;;;;5069210;28;20198;-65
2021/04/02 00:42:02;;;;;;;9.90;8.97;;;7.00;99.90;;;;;;5069052;28;20253;-65
2021/04/02 00:44:28;;;;;;;9.60;8.30;;;7.10;99.90;;;;;;5069297;28;20176;-65
2021/04/02 00:46:54;;;;;;;11.77;8.30;;;7.10;99.90;;;;;;5068916;28;20477;-65
2021/04/02 00:49:19;;;;;;;10.13;7.70;;;7.10;99.90;;;;;;5069131;28;20396;-65
2021/04/02 00:51:45;;;;;;;10.00;8.43;;;7.10;99.90;;;;;;5053289;28;20173;-65
2021/04/02 00:54:10;;;;;;;9.87;8.90;;;7.20;99.90;;;;;;5049558;28;20177;-65
2021/04/02 00:56:36;;;;;;;12.30;9.03;;;7.30;99.90;;;;;;5049040;28;20162;-65
2021/04/02 00:59:02;;;;;;;11.77;8.20;;;7.30;99.90;;;;;;5038225;28;20174;-65
2021/04/02 01:01:28;;;;;;;9.90;8.30;;;7.40;99.90;;;;;;5034492;28;20161;-65
2021/04/02 01:03:54;;;;;;;14.00;9.17;;;7.40;99.90;;;;;;5035539;28;20878;-65
2021/04/02 01:06:24;;;;;;;10.40;8.40;;;7.30;99.90;;;;;;5035439;28;20180;-65
2021/04/02 01:08:50;;;;;;;10.90;9.13;;;7.30;99.90;;;;;;5035380;28;20881;-65
2021/04/02 01:11:19;;;;;;;10.27;9.13;;;7.30;99.90;;;;;;5034705;28;20416;-65
2021/04/02 01:13:47;;;;;;;12.67;9.47;;;7.30;99.90;;;;;;5035492;28;20404;-65
2021/04/02 01:19:08;;;;;;;9.67;8.70;;;7.30;99.90;;;;;;5131378;27;20512;-64
2021/04/02 01:24:36;;;;;;;11.93;10.03;;;7.30;99.90;;;;;;5110754;27;20513;-66
2021/04/02 01:32:26;;;;;;;15.43;11.77;;;7.20;99.90;;;;;;5090560;28;20530;-65
2021/04/02 01:34:57;;;;;;;16.00;11.70;;;7.30;99.90;;;;;;5089272;28;20483;-64
2021/04/02 01:37:36;;;;;;;14.20;12.27;;;7.20;99.90;;;;;;5089080;28;20431;-64
2021/04/02 01:40:08;;;;;;;15.93;12.40;;;7.20;99.90;;;;;;5090322;28;20447;-64
2021/04/02 01:42:35;;;;;;;14.33;12.93;;;7.20;99.90;;;;;;5090916;28;20411;-64
2021/04/02 01:45:04;;;;;;;15.20;13.33;;;7.20;99.90;;;;;;5080572;28;20513;-64
2021/04/02 01:47:30;;;;;;;18.17;13.33;;;7.20;99.90;;;;;;5070075;28;20760;-64
2021/04/02 01:49:58;;;;;;;16.30;14.60;;;7.20;99.90;;;;;;5069645;28;20395;-64
2021/04/02 01:52:25;;;;;;;14.80;12.30;;;7.10;99.90;;;;;;5069828;28;20884;-64
2021/04/02 01:54:51;;;;;;;17.40;14.17;;;7.20;99.90;;;;;;5069994;28;20451;-64
2021/04/02 01:57:18;;;;;;;14.70;13.30;;;7.20;99.90;;;;;;5070005;28;20405;-64
2021/04/02 01:59:46;;;;;;;15.83;13.23;;;7.20;99.90;;;;;;5069801;28;20888;-64
2021/04/02 02:02:12;;;;;;;16.13;13.87;;;7.20;99.90;;;;;;5080911;28;20521;-64
2021/04/02 02:04:39;;;;;;;14.63;12.77;;;7.20;99.90;;;;;;5089906;28;20402;-64
2021/04/02 02:07:05;;;;;;;18.77;15.23;;;7.20;99.90;;;;;;5089836;28;20413;-64
2021/04/02 02:09:35;;;;;;;15.90;14.23;;;7.20;99.90;;;;;;5089916;28;20412;-64
2021/04/02 02:12:04;;;;;;;22.40;14.33;;;7.20;99.90;;;;;;5088580;28;20786;-64
2021/04/02 02:14:32;;;;;;;17.30;14.40;;;7.20;99.90;;;;;;5089737;28;20488;-64
2021/04/02 02:17:02;;;;;;;18.40;14.70;;;7.20;99.90;;;;;;5088312;28;20403;-64
2021/04/02 02:19:31;;;;;;;16.07;14.10;;;7.20;99.90;;;;;;5087588;28;20416;-64
2021/04/02 02:22:00;;;;;;;15.67;13.70;;;7.10;99.90;;;;;;5089687;28;20438;-64
2021/04/02 02:24:28;;;;;;;17.07;14.30;;;7.10;99.90;;;;;;5089531;28;20440;-64
2021/04/02 02:26:53;;;;;;;18.60;14.23;;;7.20;99.90;;;;;;5089551;28;20403;-64
2021/04/02 02:29:19;;;;;;;16.20;14.50;;;7.10;99.90;;;;;;5089319;28;20883;-64
2021/04/02 02:31:45;;;;;;;19.20;15.17;;;7.10;99.90;;;;;;5089766;28;20214;-64
2021/04/02 02:34:10;;;;;;;16.97;15.27;;;7.10;99.90;;;;;;5089300;28;20216;-64
2021/04/02 02:36:36;;;;;;;16.03;14.53;;;7.10;99.90;;;;;;5089283;28;20662;-64
2021/04/02 02:39:08;;;;;;;16.70;14.80;;;7.10;99.90;;;;;;5088222;28;20277;-65
2021/04/02 02:41:35;;;;;;;17.93;15.40;;;7.10;99.90;;;;;;5087458;28;20178;-64
2021/04/02 02:44:00;;;;;;;15.67;14.00;;;7.10;99.90;;;;;;5075212;28;20402;-64
2021/04/02 02:46:27;;;;;;;17.50;15.50;;;7.10;99.90;;;;;;5075514;28;20969;-64
2021/04/02 02:49:01;;;;;;;18.80;15.10;;;7.10;99.90;;;;;;5075638;28;20531;-64
2021/04/02 02:51:30;;;;;;;22.13;16.40;;;7.10;99.90;;;;;;5061819;28;20499;-64
2021/04/02 02:53:59;;;;;;;20.03;15.10;;;7.10;99.90;;;;;;5056114;28;20775;-65
2021/04/02 02:56:25;;;;;;;16.47;14.57;;;7.00;99.90;;;;;;5055476;28;20398;-64
2021/04/02 02:58:53;;;;;;;16.50;14.33;;;7.00;99.90;;;;;;5055348;28;20420;-64
2021/04/02 03:01:19;;;;;;;18.60;15.00;;;7.00;99.90;;;;;;5055262;28;20395;-64
2021/04/02 03:03:46;;;;;;;17.53;15.67;;;7.00;99.90;;;;;;5055267;28;20494;-64
2021/04/02 03:06:13;;;;;;;19.13;16.30;;;6.90;99.90;;;;;;5055226;28;20465;-64
2021/04/02 03:08:45;;;;;;;17.93;16.10;;;6.90;99.90;;;;;;5055469;28;20395;-64
2021/04/02 03:11:12;;;;;;;18.47;15.23;;;6.90;99.90;;;;;;5055971;28;20458;-64
2021/04/02 03:13:40;;;;;;;18.93;16.93;;;6.90;99.90;;;;;;5053803;28;20383;-64
2021/04/02 03:16:06;;;;;;;23.77;17.10;;;6.80;99.90;;;;;;5055216;28;20403;-64
2021/04/02 03:18:33;;;;;;;22.43;18.67;;;6.90;99.90;;;;;;5055066;28;20478;-64
2021/04/02 03:21:01;;;;;;;19.37;16.13;;;6.80;99.90;;;;;;5054922;28;20456;-64
2021/04/02 03:23:28;;;;;;;22.10;19.60;;;6.80;99.90;;;;;;5055077;28;20540;-64
2021/04/02 03:25:54;;;;;;;20.30;18.03;;;6.80;99.90;;;;;;5055347;28;20405;-64
2021/04/02 03:28:20;;;;;;;24.17;19.70;;;6.80;99.90;;;;;;5054852;28;20391;-64
2021/04/02 03:30:47;;;;;;;19.57;17.03;;;6.80;99.90;;;;;;5054855;28;20821;-64
2021/04/02 03:33:23;;;;;;;21.00;18.90;;;6.80;99.90;;;;;;5054040;28;20391;-64
2021/04/02 03:35:52;;;;;;;23.90;19.60;;;6.80;99.90;;;;;;5053458;28;20486;-64
2021/04/02 03:38:19;;;;;;;26.23;21.20;;;6.90;99.90;;;;;;5054839;28;20884;-64
2021/04/02 03:40:46;;;;;;;21.37;19.17;;;6.90;99.90;;;;;;5054506;28;20464;-64
2021/04/02 03:43:13;;;;;;;23.70;18.20;;;6.90;99.90;;;;;;5055036;28;20435;-64
2021/04/02 03:45:40;;;;;;;25.40;20.43;;;6.90;99.90;;;;;;5054465;28;21018;-64
2021/04/02 03:48:08;;;;;;;26.50;20.37;;;6.90;99.90;;;;;;5053139;28;20405;-64
2021/04/02 03:50:37;;;;;;;23.93;21.33;;;6.90;99.90;;;;;;5054496;28;20869;-65
2021/04/02 03:55:47;;;;;;;34.10;21.10;;;6.90;99.90;;;;;;5131327;27;20508;-65
2021/04/02 03:58:16;;;;;;;26.83;19.20;;;6.90;99.90;;;;;;5131332;27;20378;-65
2021/04/02 04:00:49;;;;;;;26.63;19.60;;;6.80;99.90;;;;;;5123908;27;20431;-65
2021/04/02 04:03:17;;;;;;;24.90;18.13;;;6.80;99.90;;;;;;5110669;28;20412;-65
2021/04/02 04:05:46;;;;;;;28.80;19.00;;;6.80;99.90;;;;;;5109658;28;20789;-65
2021/04/02 04:08:15;;;;;;;31.07;20.27;;;6.80;99.90;;;;;;5110660;28;20469;-65
2021/04/02 04:10:42;;;;;;;26.37;18.37;;;6.80;99.90;;;;;;5110804;28;20468;-65
2021/04/02 04:13:12;;;;;;;27.87;19.43;;;6.70;99.90;;;;;;5110919;28;20383;-65
2021/04/02 04:15:40;;;;;;;30.13;20.30;;;6.80;99.90;;;;;;5110456;28;20813;-65
2021/04/02 04:18:08;;;;;;;27.70;21.67;;;6.70;99.90;;;;;;5109870;28;20429;-65
2021/04/02 04:20:35;;;;;;;27.33;18.60;;;6.70;99.90;;;;;;5110603;28;20384;-65
2021/04/02 04:23:01;;;;;;;26.80;18.00;;;6.70;99.90;;;;;;5110161;28;20391;-65
2021/04/02 04:25:27;;;;;;;22.83;16.50;;;6.70;99.90;;;;;;5109129;28;20398;-65
2021/04/02 04:27:55;;;;;;;24.00;16.50;;;6.70;99.90;;;;;;5110256;28;20883;-65
2021/04/02 04:30:23;;;;;;;28.30;17.90;;;6.60;99.90;;;;;;5110212;28;20893;-65
2021/04/02 04:32:50;;;;;;;21.10;14.50;;;6.60;99.90;;;;;;5110189;28;20400;-65
2021/04/02 04:35:17;;;;;;;21.53;16.10;;;6.60;99.90;;;;;;5110996;28;20454;-65
2021/04/02 04:37:45;;;;;;;20.10;14.33;;;6.50;99.90;;;;;;5110370;28;20426;-65
2021/04/02 04:40:14;;;;;;;21.57;15.97;;;6.50;99.90;;;;;;5108989;28;20429;-65
2021/04/02 04:42:42;;;;;;;17.10;13.80;;;6.50;99.90;;;;;;5109930;28;20889;-65
2021/04/02 04:45:09;;;;;;;16.60;13.87;;;6.50;99.90;;;;;;5109987;28;20413;-65
2021/04/02 04:47:36;;;;;;;19.27;13.60;;;6.50;99.90;;;;;;5109827;28;20553;-65
2021/04/02 04:50:03;;;;;;;16.67;13.87;;;6.40;99.90;;;;;;5111652;28;20446;-65
2021/04/02 04:52:30;;;;;;;18.90;14.37;;;6.40;99.90;;;;;;5117165;27;20771;-65
2021/04/02 04:54:58;;;;;;;21.00;14.57;;;6.40;99.90;;;;;;5108408;28;20912;-65
2021/04/02 04:57:24;;;;;;;18.47;14.67;;;6.40;99.90;;;;;;5109679;28;20433;-65
2021/04/02 04:59:51;;;;;;;19.20;14.00;;;6.40;99.90;;;;;;5109838;28;20499;-65
2021/04/02 05:02:18;;;;;;;14.90;12.30;;;6.50;99.90;;;;;;5108550;28;20427;-65
2021/04/02 05:04:45;;;;;;;17.10;11.73;;;6.50;99.90;;;;;;5109973;28;20396;-65
2021/04/02 05:07:12;;;;;;;18.43;13.20;;;6.50;99.90;;;;;;5096067;28;20883;-65
2021/04/02 05:09:40;;;;;;;19.67;11.50;;;6.50;99.90;;;;;;5096511;28;20429;-65
2021/04/02 05:12:09;;;;;;;15.73;12.77;;;6.40;99.90;;;;;;5095969;28;20401;-65
2021/04/02 05:14:35;;;;;;;15.47;12.83;;;6.40;99.90;;;;;;5095901;28;20591;-65
2021/04/02 05:17:02;;;;;;;15.37;12.37;;;6.40;99.90;;;;;;5096039;28;20409;-65
2021/04/02 05:19:29;;;;;;;15.50;12.53;;;6.40;99.90;;;;;;5094784;28;20486;-64
2021/04/02 05:21:54;;;;;;;15.87;13.33;;;6.40;99.90;;;;;;5095859;28;20420;-64
2021/04/02 05:24:23;;;;;;;15.23;12.20;;;6.40;99.90;;;;;;5095854;28;20385;-64
2021/04/02 05:26:49;;;;;;;18.90;12.17;;;6.40;99.90;;;;;;5096221;28;20654;-64
2021/04/02 05:29:15;;;;;;;16.33;13.40;;;6.40;99.90;;;;;;5095732;28;20393;-64
2021/04/02 05:31:40;;;;;;;14.70;13.20;;;6.40;99.90;;;;;;5096008;28;20383;-65
2021/04/02 05:34:06;;;;;;;15.00;12.00;;;6.40;99.90;;;;;;5095694;28;20227;-64
2021/04/02 05:36:32;;;;;;;17.63;12.57;;;6.40;99.90;;;;;;5094352;28;20232;-64
2021/04/02 05:38:57;;;;;;;14.30;11.87;;;6.40;99.90;;;;;;5095474;28;20217;-64
2021/04/02 05:41:30;;;;;;;18.63;12.53;;;6.40;99.90;;;;;;5095527;28;20148;-64
2021/04/02 05:44:00;;;;;;;14.40;12.93;;;6.40;99.90;;;;;;5095941;28;20173;-65
2021/04/02 05:46:26;;;;;;;13.80;11.87;;;6.50;99.90;;;;;;5095627;28;20519;-65
2021/04/02 05:49:00;;;;;;;20.57;14.87;;;6.40;99.90;;;;;;5094078;28;20398;-65
2021/04/02 05:51:27;;;;;;;14.97;13.40;;;6.50;99.90;;;;;;5108844;28;20937;-65
2021/04/02 05:53:55;;;;;;;15.80;13.03;;;6.50;99.90;;;;;;5115469;27;20452;-65
2021/04/02 05:56:21;;;;;;;16.97;13.50;;;6.50;99.90;;;;;;5115333;28;20391;-65
2021/04/02 05:58:47;;;;;;;20.90;13.33;;;6.50;99.90;;;;;;5114462;28;20478;-65
2021/04/02 06:01:13;;;;;;;18.37;14.37;;;6.50;99.90;;;;;;5095761;28;20397;-65
2021/04/02 06:03:39;;;;;;;18.93;14.83;;;6.60;99.90;;;;;;5094906;28;20400;-65
2021/04/02 06:06:05;;;;;;;23.37;16.93;;;6.60;99.90;;;;;;5094965;28;20166;-65
2021/04/02 06:08:33;;;;;;;24.07;17.30;;;6.60;99.90;;;;;;5094761;28;20785;-65
2021/04/02 06:10:58;;;;;;;20.03;16.90;;;6.50;99.90;;;;;;5093606;28;20427;-65
2021/04/02 06:13:24;;;;;;;24.30;18.40;;;6.50;99.90;;;;;;5094873;28;20474;-65
2021/04/02 06:15:49;;;;;;;20.40;16.77;;;6.50;99.90;;;;;;5094750;28;20169;-65
2021/04/02 06:18:15;;;;;;;22.03;16.43;;;6.50;99.90;;;;;;5094019;28;20173;-65
2021/04/02 06:20:44;;;;;;;19.20;16.57;;;6.60;99.90;;;;;;5094452;28;20235;-65
2021/04/02 06:28:30;;;;;;;27.50;15.50;;;6.60;99.90;;;;;;5090731;28;20560;-65
2021/04/02 06:33:53;;;;;;;17.47;15.67;;;6.70;99.90;;;;;;5082648;27;20520;-65
2021/04/02 06:41:33;;;;;;;21.50;13.40;;;6.70;99.90;;;;;;5111290;27;20556;-65
2021/04/02 06:44:01;;;;;;;18.77;14.00;;;6.70;99.90;;;;;;5109810;28;20384;-65
2021/04/02 06:46:29;;;;;;;17.37;14.17;;;6.70;99.90;;;;;;5110761;28;20421;-66
2021/04/02 06:49:07;;;;;;;15.63;11.70;;;6.70;99.90;;;;;;5110712;28;20380;-65
2021/04/02 06:51:36;;;;;;;13.93;12.53;;;6.70;99.90;;;;;;5095482;28;20780;-65
2021/04/02 06:54:03;;;;;;;19.13;13.63;;;6.80;99.90;;;;;;5090643;28;20381;-65
2021/04/02 06:56:30;;;;;;;14.53;13.10;;;6.80;99.90;;;;;;5090720;28;20820;-65
2021/04/02 06:58:58;;;;;;;16.57;12.83;;;6.80;99.90;;;;;;5090319;28;20446;-65
2021/04/02 07:01:27;;;;;;;17.17;12.40;;;6.70;99.90;;;;;;5090170;28;20476;-65
2021/04/02 07:03:53;;;;;;;17.20;12.77;;;6.70;99.90;;;;;;5090220;28;20386;-65
2021/04/02 07:06:19;;;;;;;12.73;11.43;;;6.70;99.90;;;;;;5090266;28;20790;-65
2021/04/02 07:08:45;;;;;;;15.33;11.50;;;6.70;99.90;;;;;;5090745;28;20491;-65
2021/04/02 07:11:12;;;;;;;15.20;11.23;;;6.70;99.90;;;;;;5090284;28;20394;-65
2021/04/02 07:13:47;;;;;;;14.20;11.30;;;6.70;99.90;;;;;;5088752;28;20393;-65
2021/04/02 07:16:13;;;;;;;14.27;11.80;;;6.70;99.90;;;;;;5089867;28;20404;-65
2021/04/02 07:18:40;;;;;;;15.80;11.33;;;6.70;99.90;;;;;;5089806;28;20400;-65
2021/04/02 07:21:06;;;;;;;12.43;10.93;;;6.60;99.90;;;;;;5090170;28;20458;-65
2021/04/02 07:23:32;;;;;;;22.27;12.60;;;6.60;99.90;;;;;;5089888;28;20400;-65
2021/04/02 07:25:58;;;;;;;15.20;12.37;;;6.60;99.90;;;;;;5090219;28;20410;-65
2021/04/02 07:28:25;;;;;;;13.77;11.60;;;6.60;99.90;;;;;;5088449;28;20394;-65
2021/04/02 07:30:53;;;;;;;15.37;11.87;;;6.60;99.90;;;;;;5089906;28;20197;-65
2021/04/02 07:33:20;;;;;;;14.07;12.40;;;6.60;99.90;;;;;;5089578;28;20411;-65
2021/04/02 07:35:55;;;;;;;17.10;13.00;;;6.70;99.90;;;;;;5089539;28;20397;-65
2021/04/02 07:38:25;;;;;;;14.40;12.47;;;6.70;99.90;;;;;;5089460;28;20426;-65
2021/04/02 07:40:51;;;;;;;15.40;13.13;;;6.70;99.90;;;;;;5089454;28;20461;-65
2021/04/02 07:43:18;;;;;;;13.40;12.00;;;6.80;99.90;;;;;;5089691;28;20408;-65
2021/04/02 07:45:52;;;;;;;15.83;12.70;;;6.80;99.90;;;;;;5089461;28;20199;-65
2021/04/02 07:48:23;;;;;;;14.57;13.07;;;6.90;99.90;;;;;;5088449;28;20390;-65
2021/04/02 07:50:53;;;;;;;17.10;12.30;;;6.90;99.90;;;;;;5087764;28;20406;-65
2021/04/02 07:56:00;;;;;;;15.80;14.20;;;6.90;99.90;;;;;;5131487;27;20561;-64
2021/04/02 07:58:27;;;;;;;15.37;12.50;;;7.00;99.90;;;;;;5126298;27;20423;-64
2021/04/02 08:00:56;;;;;;;17.43;12.97;;;7.10;99.90;;;;;;5111313;28;20428;-66
2021/04/02 08:03:24;;;;;;;14.00;12.30;;;7.10;99.90;;;;;;5111088;28;20384;-66
2021/04/02 08:05:58;;;;;;;19.27;13.90;;;7.10;99.90;;;;;;5110819;28;20850;-66
2021/04/02 08:08:26;;;;;;;19.13;12.13;;;7.10;99.90;;;;;;5109650;28;20891;-66
2021/04/02 08:11:29;;;;;;;15.43;13.00;;;7.10;99.90;;;;;;5110618;28;20385;-66
2021/04/02 08:19:29;;;;;;;14.80;13.30;;;7.10;99.90;;;;;;5131499;27;20505;-64
2021/04/02 08:21:58;;;;;;;20.33;11.87;;;7.20;99.90;;;;;;5130880;28;20403;-66
2021/04/02 08:24:27;;;;;;;14.70;12.30;;;7.20;99.90;;;;;;5130218;28;20938;-66
2021/04/02 08:26:53;;;;;;;19.33;13.13;;;7.20;99.90;;;;;;5131330;27;20883;-64
2021/04/02 08:29:20;;;;;;;15.03;11.37;;;7.20;99.90;;;;;;5130225;28;20391;-64
2021/04/02 08:31:50;;;;;;;15.70;11.70;;;7.30;99.90;;;;;;5131476;27;20388;-64
2021/04/02 08:34:19;;;;;;;16.93;12.30;;;7.30;99.90;;;;;;5130714;28;20432;-66
2021/04/02 08:36:46;;;;;;;14.10;12.23;;;7.30;99.90;;;;;;5131145;27;20393;-66
2021/04/02 08:39:14;;;;;;;17.57;13.33;;;7.40;99.90;;;;;;5131016;27;20406;-66
2021/04/02 08:41:40;;;;;;;14.87;12.23;;;7.40;99.90;;;;;;5131277;27;20397;-66
2021/04/02 08:44:06;;;;;;;24.73;11.60;;;7.60;99.90;;;;;;5130954;28;20397;-64
2021/04/02 08:46:42;;;;;;;15.97;10.47;;;7.70;99.90;;;;;;5130985;28;20737;-66
2021/04/02 08:49:09;;;;;;;12.53;10.30;;;7.80;99.90;;;;;;5128680;27;20188;-66
2021/04/02 08:51:35;;;;;;;12.77;10.37;;;8.00;99.90;;;;;;5124241;28;20417;-66
2021/04/02 08:54:02;;;;;;;13.17;8.70;;;8.10;99.90;;;;;;5130962;27;20419;-65
2021/04/02 08:56:30;;;;;;;12.23;8.67;;;8.20;99.90;;;;;;5129777;28;20902;-64
2021/04/02 08:58:58;;;;;;;11.23;9.60;;;8.40;99.90;;;;;;5130873;27;20443;-64
2021/04/02 09:01:24;;;;;;;12.10;9.40;;;8.50;99.90;;;;;;5130934;28;20405;-64
2021/04/02 09:03:52;;;;;;;12.23;10.53;;;8.60;99.90;;;;;;5130945;28;20477;-64
2021/04/02 09:06:18;;;;;;;12.30;9.53;;;8.70;99.90;;;;;;5129824;27;20452;-64
2021/04/02 09:08:44;;;;;;;17.50;10.33;;;8.70;99.90;;;;;;5130790;27;20409;-64
2021/04/02 09:11:11;;;;;;;13.53;11.33;;;8.70;99.90;;;;;;5130427;27;20409;-64
2021/04/02 09:13:39;;;;;;;12.93;10.90;;;8.80;99.90;;;;;;5130442;28;20641;-65
2021/04/02 09:16:09;;;;;;;15.70;10.83;;;8.90;99.90;;;;;;5130426;27;20418;-65
2021/04/02 09:18:48;;;;;;;17.30;11.07;;;9.00;99.90;;;;;;5129144;28;20457;-65
2021/04/02 09:21:14;;;;;;;15.63;11.00;;;9.20;99.90;;;;;;5130396;27;20819;-65
2021/04/02 09:23:40;;;;;;;14.87;10.10;;;9.30;99.90;;;;;;5129414;27;20419;-64
2021/04/02 09:26:09;;;;;;;14.20;10.90;;;9.40;99.90;;;;;;5130064;27;20885;-64
2021/04/02 09:28:36;;;;;;;19.13;11.77;;;9.40;99.90;;;;;;5127392;27;20158;-64
2021/04/02 09:31:23;;;;;;;12.20;10.00;;;9.30;99.90;;;;;;5116475;28;20737;-65
2021/04/02 09:33:54;;;;;;;14.57;10.20;;;9.40;99.90;;;;;;5115904;28;20399;-65
2021/04/02 09:36:22;;;;;;;10.33;9.30;;;9.30;99.90;;;;;;5116574;28;20498;-64
2021/04/02 09:38:48;;;;;;;12.97;9.47;;;9.20;99.90;;;;;;5116259;28;21013;-64
2021/04/02 09:41:21;;;;;;;11.27;9.77;;;9.20;99.90;;;;;;5115555;28;20442;-64
2021/04/02 09:43:49;;;;;;;11.33;9.47;;;9.10;99.90;;;;;;5116180;28;20398;-64
2021/04/02 09:46:29;;;;;;;11.70;10.50;;;9.00;99.90;;;;;;5116125;28;20808;-65
2021/04/02 09:49:07;;;;;;;11.87;9.90;;;9.00;99.90;;;;;;5115171;28;20403;-65
2021/04/02 09:51:35;;;;;;;10.53;9.27;;;8.90;99.90;;;;;;5095553;28;20392;-64
2021/04/02 09:54:01;;;;;;;12.07;9.10;;;8.80;99.90;;;;;;5094324;28;20402;-64
2021/04/02 09:56:27;;;;;;;9.83;8.80;;;8.70;99.90;;;;;;5095515;28;20812;-64
2021/04/02 09:58:53;;;;;;;11.53;9.30;;;8.60;99.90;;;;;;5095839;28;20816;-64
2021/04/02 10:01:19;;;;;;;14.50;9.37;;;8.50;99.90;;;;;;5095886;28;20444;-64
2021/04/02 10:03:44;;;;;;;9.90;8.90;;;8.40;99.90;;;;;;5095467;28;20400;-64
2021/04/02 10:06:10;;;;;;;9.93;8.63;;;8.30;99.90;;;;;;5095341;28;20166;-64
2021/04/02 10:08:35;;;;;;;11.77;9.80;;;8.30;99.90;;;;;;5095269;28;20157;-64
2021/04/02 10:11:01;;;;;;;12.33;9.53;;;8.40;99.90;;;;;;5095138;28;20221;-65
2021/04/02 10:13:27;;;;;;;9.47;8.10;;;8.30;99.90;;;;;;5095305;28;20196;-65
2021/04/02 10:15:52;;;;;;;10.70;8.50;;;8.30;99.90;;;;;;5096077;28;20181;-64
2021/04/02 10:18:19;;;;;;;10.07;8.50;;;8.20;99.90;;;;;;5094899;28;20258;-65
2021/04/02 10:20:44;;;;;;;10.50;8.10;;;8.20;99.90;;;;;;5095071;28;20606;-65
2021/04/02 10:23:10;;;;;;;11.30;7.43;;;8.30;99.90;;;;;;5095004;28;20506;-65
2021/04/02 10:25:35;;;;;;;8.13;7.33;;;8.30;99.90;;;;;;5095000;28;20205;-65
2021/04/02 10:28:01;;;;;;;7.20;6.50;;;8.30;99.90;;;;;;5093779;28;20210;-65
2021/04/02 10:30:27;;;;;;;7.60;6.90;;;8.30;99.90;;;;;;5095137;28;20172;-66
2021/04/02 10:32:53;;;;;;;9.23;7.70;;;8.40;99.90;;;;;;5095348;28;20182;-65
2021/04/02 10:35:19;;;;;;;8.80;7.53;;;8.40;99.90;;;;;;5094714;28;20212;-66
2021/04/02 10:37:44;;;;;;;10.87;7.70;;;8.40;99.90;;;;;;5094599;28;20190;-66
2021/04/02 10:40:10;;;;;;;9.07;8.17;;;8.40;99.90;;;;;;5094252;28;20175;-66
2021/04/02 10:42:36;;;;;;;10.27;8.20;;;8.50;99.90;;;;;;5094334;28;20243;-67
2021/04/02 10:45:03;;;;;;;9.13;7.47;;;8.50;99.90;;;;;;5094593;28;20824;-66
2021/04/02 10:47:28;;;;;;;10.57;7.80;;;8.60;99.90;;;;;;5093305;28;20787;-65
2021/04/02 10:49:54;;;;;;;13.83;8.50;;;8.60;99.90;;;;;;5104152;28;20433;-65
2021/04/02 10:52:19;;;;;;;13.27;7.30;;;8.60;99.90;;;;;;5114743;28;20167;-65
2021/04/02 10:54:45;;;;;;;8.97;7.70;;;8.70;99.90;;;;;;5114858;28;20165;-65
2021/04/02 10:57:10;;;;;;;11.60;7.90;;;8.70;99.90;;;;;;5115123;28;20626;-65
2021/04/02 10:59:36;;;;;;;12.00;9.13;;;8.80;99.90;;;;;;5114961;27;20665;-65
2021/04/02 11:02:01;;;;;;;9.77;7.97;;;8.70;99.90;;;;;;5114622;28;20152;-64
2021/04/02 11:04:27;;;;;;;9.00;8.10;;;8.70;99.90;;;;;;5114604;28;20167;-64
2021/04/02 11:06:52;;;;;;;9.77;7.67;;;8.70;99.90;;;;;;5113702;28;20187;-65
2021/04/02 11:09:18;;;;;;;9.53;8.47;;;8.70;99.90;;;;;;5114591;28;20180;-65
2021/04/02 11:11:43;;;;;;;9.73;8.77;;;8.60;99.90;;;;;;5114960;28;20149;-64
2021/04/02 11:14:09;;;;;;;9.27;8.37;;;8.70;99.90;;;;;;5114465;28;20156;-64
2021/04/02 11:16:35;;;;;;;9.87;8.53;;;8.70;99.90;;;;;;5114670;28;20542;-64
2021/04/02 11:19:00;;;;;;;9.67;8.53;;;8.80;99.90;;;;;;5114082;28;20281;-64
2021/04/02 11:21:26;;;;;;;9.37;7.90;;;8.90;99.90;;;;;;5114277;28;20239;-64
2021/04/02 11:23:51;;;;;;;7.87;7.07;;;9.00;99.90;;;;;;5113702;28;20732;-65
2021/04/02 11:26:17;;;;;;;13.57;8.70;;;9.10;99.90;;;;;;5114599;28;20569;-64
2021/04/02 11:28:42;;;;;;;10.40;7.47;;;9.20;99.90;;;;;;5114188;28;20173;-65
2021/04/02 11:31:08;;;;;;;12.10;8.10;;;9.20;99.90;;;;;;5114038;28;20158;-65
2021/04/02 11:33:34;;;;;;;9.30;8.50;;;9.20;99.90;;;;;;5114295;28;20165;-65
2021/04/02 11:35:59;;;;;;;13.50;9.30;;;9.10;99.90;;;;;;5114429;28;20616;-64
2021/04/02 11:38:26;;;;;;;18.70;9.17;;;9.10;99.90;;;;;;5114140;28;20192;-65
2021/04/02 11:40:52;;;;;;;9.00;7.63;;;9.10;99.90;;;;;;5113681;28;20178;-65
2021/04/02 11:43:17;;;;;;;9.70;8.70;;;9.20;99.90;;;;;;5113868;28;20444;-64
2021/04/02 11:45:43;;;;;;;14.20;11.23;;;9.30;99.90;;;;;;5113766;28;20189;-65
2021/04/02 11:48:09;;;;;;;11.33;10.23;;;9.40;99.90;;;;;;5110835;28;20558;-64
2021/04/02 11:50:34;;;;;;;13.57;12.10;;;9.40;99.90;;;;;;5093675;28;20190;-64
2021/04/02 11:53:00;;;;;;;13.20;11.80;;;9.40;99.90;;;;;;5093290;28;20176;-65
2021/04/02 11:55:26;;;;;;;16.10;14.40;;;9.40;99.90;;;;;;5093743;28;20295;-65
2021/04/02 11:57:51;;;;;;;17.20;15.40;;;9.40;99.90;;;;;;5092588;28;20350;-65
2021/04/02 12:00:18;;;;;;;19.13;17.17;;;9.40;99.90;;;;;;5093358;28;20165;-64
2021/04/02 12:02:44;;;;;;;23.50;19.87;;;9.40;99.90;;;;;;5093264;28;20242;-65
2021/04/02 12:05:10;;;;;;;26.10;21.10;;;9.50;99.90;;;;;;5093698;28;20742;-64
2021/04/02 12:07:36;;;;;;;25.57;22.87;;;9.40;99.90;;;;;;5092021;28;20504;-65
2021/04/02 12:10:04;;;;;;;33.80;28.27;;;9.50;99.90;;;;;;5093535;28;20702;-64
2021/04/02 12:12:29;;;;;;;37.63;31.17;;;9.40;99.90;;;;;;5093035;28;20404;-66
2021/04/02 12:14:55;;;;;;;39.53;33.70;;;9.30;99.90;;;;;;5093695;28;20481;-65
2021/04/02 12:17:21;;;;;;;37.53;31.20;;;9.30;99.90;;;;;;5092956;28;20213;-65
2021/04/02 12:19:47;;;;;;;44.53;36.20;;;9.20;99.90;;;;;;5093008;28;20219;-65
2021/04/02 12:22:13;;;;;;;46.30;39.53;;;9.10;99.90;;;;;;5093361;28;20158;-65
2021/04/02 12:24:38;;;;;;;47.17;42.00;;;9.00;99.90;;;;;;5093116;28;20393;-64
2021/04/02 12:27:05;;;;;;;46.87;42.03;;;8.90;99.90;;;;;;5093084;28;20188;-64
2021/04/02 12:29:31;;;;;;;45.73;40.80;;;8.80;99.90;;;;;;5091831;28;20162;-64
2021/04/02 12:31:57;;;;;;;44.03;39.23;;;8.70;99.90;;;;;;5093715;28;20427;-65
2021/04/02 12:34:22;;;;;;;43.60;37.07;;;8.60;99.90;;;;;;5092879;28;20175;-65
2021/04/02 12:36:48;;;;;;;39.87;35.57;;;8.60;99.90;;;;;;5093375;28;20190;-65
2021/04/02 12:39:13;;;;;;;34.57;30.97;;;8.60;99.90;;;;;;5092656;28;20621;-64
2021/04/02 12:41:39;;;;;;;33.20;29.80;;;8.60;99.90;;;;;;5092946;28;20626;-64
2021/04/02 12:44:05;;;;;;;35.73;29.53;;;8.60;99.90;;;;;;5093445;28;20243;-65
2021/04/02 12:46:30;;;;;;;30.93;27.83;;;8.60;99.90;;;;;;5093032;28;20223;-66
2021/04/02 12:48:56;;;;;;;24.53;22.03;;;8.70;99.90;;;;;;5112340;28;20184;-64
2021/04/02 12:51:21;;;;;;;22.20;19.90;;;8.80;99.90;;;;;;5133972;27;20174;-64
2021/04/02 12:53:47;;;;;;;21.93;19.63;;;8.90;99.90;;;;;;5133671;27;20164;-64
2021/04/02 12:56:13;;;;;;;22.20;19.80;;;8.90;99.90;;;;;;5133574;27;20239;-64
2021/04/02 12:58:38;;;;;;;23.33;20.50;;;9.00;99.90;;;;;;5133654;27;20487;-64
2021/04/02 13:01:04;;;;;;;24.53;19.73;;;9.00;99.90;;;;;;5133601;27;20293;-64
2021/04/02 13:03:30;;;;;;;24.97;17.77;;;9.10;99.90;;;;;;5133858;27;20228;-65
2021/04/02 13:05:55;;;;;;;19.70;16.33;;;9.20;99.90;;;;;;5101973;27;20180;-64
2021/04/02 13:08:21;;;;;;;19.17;16.90;;;9.20;99.90;;;;;;5096478;28;20173;-64
2021/04/02 13:10:47;;;;;;;18.37;16.43;;;9.30;99.90;;;;;;5096629;28;20241;-65
2021/04/02 13:13:12;;;;;;;19.10;17.20;;;9.40;99.90;;;;;;5096419;28;20158;-64
2021/04/02 13:15:38;;;;;;;21.80;17.33;;;9.50;99.90;;;;;;5096567;28;20160;-65